sensor_id;sensor_type;location;lat;lon;timestamp;P1;durP1;ratioP1;P2;durP2;ratioP2
77262;SDS011;66373;52.334;4.806;2023-02-15T00:01:56;23.15;;;13.95;;
77262;SDS011;66373;52.334;4.806;2023-02-15T00:04:24;21.20;;;11.98;;
77262;SDS011;66373;52.334;4.806;2023-02-15T00:07:12;22.02;;;12.88;;
77262;SDS011;66373;52.334;4.806;2023-02-15T00:09:40;22.35;;;12.52;;
77262;SDS011;66373;52.334;4.806;2023-02-15T00:12:06;21.85;;;13.23;;
77262;SDS011;66373;52.334;4.806;2023-02-15T00:14:35;17.65;;;12.68;;
77262;SDS011;66373;52.334;4.806;2023-02-15T00:17:03;19.10;;;12.70;;
77262;SDS011;66373;52.334;4.806;2023-02-15T00:19:30;23.17;;;13.80;;
77262;SDS011;66373;52.334;4.806;2023-02-15T00:21:57;23.83;;;13.50;;
77262;SDS011;66373;52.334;4.806;2023-02-15T00:24:24;18.92;;;12.25;;
77262;SDS011;66373;52.334;4.806;2023-02-15T00:26:51;18.40;;;11.73;;
77262;SDS011;66373;52.334;4.806;2023-02-15T00:29:19;19.17;;;12.63;;
77262;SDS011;66373;52.334;4.806;2023-02-15T00:31:47;19.25;;;12.27;;
77262;SDS011;66373;52.334;4.806;2023-02-15T00:34:15;18.00;;;12.02;;
77262;SDS011;66373;52.334;4.806;2023-02-15T00:36:43;19.08;;;12.30;;
77262;SDS011;66373;52.334;4.806;2023-02-15T00:39:13;18.00;;;12.45;;
77262;SDS011;66373;52.334;4.806;2023-02-15T00:41:40;20.90;;;13.45;;
77262;SDS011;66373;52.334;4.806;2023-02-15T00:44:07;21.02;;;12.75;;
77262;SDS011;66373;52.334;4.806;2023-02-15T00:46:34;20.13;;;13.50;;
77262;SDS011;66373;52.334;4.806;2023-02-15T00:49:03;18.58;;;12.07;;
77262;SDS011;66373;52.334;4.806;2023-02-15T00:51:30;18.33;;;13.02;;
77262;SDS011;66373;52.334;4.806;2023-02-15T00:53:58;17.92;;;11.48;;
77262;SDS011;66373;52.334;4.806;2023-02-15T00:56:25;19.88;;;12.75;;
77262;SDS011;66373;52.334;4.806;2023-02-15T00:58:53;17.42;;;11.63;;
77262;SDS011;66373;52.334;4.806;2023-02-15T01:01:20;19.65;;;12.82;;
77262;SDS011;66373;52.334;4.806;2023-02-15T01:03:50;16.52;;;12.00;;
77262;SDS011;66373;52.334;4.806;2023-02-15T01:06:18;15.45;;;11.07;;
77262;SDS011;66373;52.334;4.806;2023-02-15T01:08:46;16.42;;;12.05;;
77262;SDS011;66373;52.334;4.806;2023-02-15T01:11:14;17.50;;;11.82;;
77262;SDS011;66373;52.334;4.806;2023-02-15T01:13:47;16.85;;;11.82;;
77262;SDS011;66373;52.334;4.806;2023-02-15T01:16:14;16.90;;;12.00;;
77262;SDS011;66373;52.334;4.806;2023-02-15T01:18:41;16.05;;;12.00;;
77262;SDS011;66373;52.334;4.806;2023-02-15T01:21:09;18.27;;;12.20;;
77262;SDS011;66373;52.334;4.806;2023-02-15T01:23:40;14.57;;;11.07;;
77262;SDS011;66373;52.334;4.806;2023-02-15T01:26:07;16.75;;;11.63;;
77262;SDS011;66373;52.334;4.806;2023-02-15T01:28:34;16.70;;;11.13;;
77262;SDS011;66373;52.334;4.806;2023-02-15T01:31:04;16.98;;;11.00;;
77262;SDS011;66373;52.334;4.806;2023-02-15T01:33:31;16.17;;;11.70;;
77262;SDS011;66373;52.334;4.806;2023-02-15T01:35:58;14.32;;;11.05;;
77262;SDS011;66373;52.334;4.806;2023-02-15T01:38:25;15.13;;;11.52;;
77262;SDS011;66373;52.334;4.806;2023-02-15T01:40:54;16.00;;;10.55;;
77262;SDS011;66373;52.334;4.806;2023-02-15T01:43:42;13.32;;;9.48;;
77262;SDS011;66373;52.334;4.806;2023-02-15T01:46:12;18.35;;;12.88;;
77262;SDS011;66373;52.334;4.806;2023-02-15T01:48:41;14.35;;;10.65;;
77262;SDS011;66373;52.334;4.806;2023-02-15T01:51:11;15.40;;;11.55;;
77262;SDS011;66373;52.334;4.806;2023-02-15T01:53:40;15.65;;;10.82;;
77262;SDS011;66373;52.334;4.806;2023-02-15T01:56:12;17.20;;;11.35;;
77262;SDS011;66373;52.334;4.806;2023-02-15T01:58:47;14.35;;;10.60;;
77262;SDS011;66373;52.334;4.806;2023-02-15T02:01:17;13.27;;;10.20;;
77262;SDS011;66373;52.334;4.806;2023-02-15T02:03:48;13.73;;;10.27;;
77262;SDS011;66373;52.334;4.806;2023-02-15T02:06:23;13.27;;;9.65;;
77262;SDS011;66373;52.334;4.806;2023-02-15T02:08:50;14.75;;;10.70;;
77262;SDS011;66373;52.334;4.806;2023-02-15T02:11:20;14.95;;;10.73;;
77262;SDS011;66373;52.334;4.806;2023-02-15T02:13:47;15.38;;;10.77;;
77262;SDS011;66373;52.334;4.806;2023-02-15T02:16:16;14.45;;;10.30;;
77262;SDS011;66373;52.334;4.806;2023-02-15T02:18:53;14.10;;;10.90;;
77262;SDS011;66373;52.334;4.806;2023-02-15T02:27:15;14.75;;;10.25;;
77262;SDS011;66373;52.334;4.806;2023-02-15T02:33:08;15.27;;;10.05;;
77262;SDS011;66373;52.334;4.806;2023-02-15T02:35:53;13.00;;;9.23;;
77262;SDS011;66373;52.334;4.806;2023-02-15T02:38:29;13.10;;;9.63;;
77262;SDS011;66373;52.334;4.806;2023-02-15T02:41:10;13.13;;;10.02;;
77262;SDS011;66373;52.334;4.806;2023-02-15T02:43:44;12.93;;;9.80;;
77262;SDS011;66373;52.334;4.806;2023-02-15T02:46:20;12.27;;;8.82;;
77262;SDS011;66373;52.334;4.806;2023-02-15T02:48:52;12.52;;;9.43;;
77262;SDS011;66373;52.334;4.806;2023-02-15T02:51:19;11.55;;;8.82;;
77262;SDS011;66373;52.334;4.806;2023-02-15T02:53:48;11.55;;;8.27;;
77262;SDS011;66373;52.334;4.806;2023-02-15T02:56:19;11.60;;;8.90;;
77262;SDS011;66373;52.334;4.806;2023-02-15T02:58:51;13.60;;;9.65;;
77262;SDS011;66373;52.334;4.806;2023-02-15T03:01:27;12.63;;;9.00;;
77262;SDS011;66373;52.334;4.806;2023-02-15T03:04:00;11.88;;;8.82;;
77262;SDS011;66373;52.334;4.806;2023-02-15T03:06:33;12.13;;;9.15;;
77262;SDS011;66373;52.334;4.806;2023-02-15T03:09:07;10.55;;;8.45;;
77262;SDS011;66373;52.334;4.806;2023-02-15T03:11:41;12.88;;;9.43;;
77262;SDS011;66373;52.334;4.806;2023-02-15T03:14:09;10.85;;;8.73;;
77262;SDS011;66373;52.334;4.806;2023-02-15T03:16:37;11.90;;;8.98;;
77262;SDS011;66373;52.334;4.806;2023-02-15T03:19:08;12.15;;;9.05;;
77262;SDS011;66373;52.334;4.806;2023-02-15T03:21:39;10.85;;;9.02;;
77262;SDS011;66373;52.334;4.806;2023-02-15T03:24:15;10.20;;;8.60;;
77262;SDS011;66373;52.334;4.806;2023-02-15T03:26:49;11.77;;;8.57;;
77262;SDS011;66373;52.334;4.806;2023-02-15T03:29:18;13.05;;;8.30;;
77262;SDS011;66373;52.334;4.806;2023-02-15T03:31:50;12.50;;;9.00;;
77262;SDS011;66373;52.334;4.806;2023-02-15T03:34:24;17.35;;;9.75;;
77262;SDS011;66373;52.334;4.806;2023-02-15T03:36:52;11.02;;;8.52;;
77262;SDS011;66373;52.334;4.806;2023-02-15T03:39:26;13.35;;;8.65;;
77262;SDS011;66373;52.334;4.806;2023-02-15T03:41:59;10.02;;;8.52;;
77262;SDS011;66373;52.334;4.806;2023-02-15T03:44:35;10.82;;;8.70;;
77262;SDS011;66373;52.334;4.806;2023-02-15T03:47:08;11.07;;;8.10;;
77262;SDS011;66373;52.334;4.806;2023-02-15T03:49:42;10.55;;;8.32;;
77262;SDS011;66373;52.334;4.806;2023-02-15T03:52:14;10.68;;;7.90;;
77262;SDS011;66373;52.334;4.806;2023-02-15T03:54:43;10.75;;;8.20;;
77262;SDS011;66373;52.334;4.806;2023-02-15T03:57:13;9.45;;;7.93;;
77262;SDS011;66373;52.334;4.806;2023-02-15T04:00:00;10.05;;;7.75;;
77262;SDS011;66373;52.334;4.806;2023-02-15T04:05:40;9.48;;;7.82;;
77262;SDS011;66373;52.334;4.806;2023-02-15T04:08:08;10.32;;;8.50;;
77262;SDS011;66373;52.334;4.806;2023-02-15T04:10:35;10.15;;;8.32;;
77262;SDS011;66373;52.334;4.806;2023-02-15T04:13:17;11.30;;;8.52;;
77262;SDS011;66373;52.334;4.806;2023-02-15T04:15:44;12.73;;;7.88;;
77262;SDS011;66373;52.334;4.806;2023-02-15T04:18:28;9.50;;;7.25;;
77262;SDS011;66373;52.334;4.806;2023-02-15T04:21:14;10.43;;;7.38;;
77262;SDS011;66373;52.334;4.806;2023-02-15T04:23:58;9.63;;;7.07;;
77262;SDS011;66373;52.334;4.806;2023-02-15T04:26:42;11.88;;;7.75;;
77262;SDS011;66373;52.334;4.806;2023-02-15T04:29:09;8.68;;;7.15;;
77262;SDS011;66373;52.334;4.806;2023-02-15T04:31:36;8.65;;;7.35;;
77262;SDS011;66373;52.334;4.806;2023-02-15T04:34:03;10.73;;;7.80;;
77262;SDS011;66373;52.334;4.806;2023-02-15T04:36:31;9.60;;;7.30;;
77262;SDS011;66373;52.334;4.806;2023-02-15T04:38:58;8.05;;;6.57;;
77262;SDS011;66373;52.334;4.806;2023-02-15T04:41:25;10.05;;;7.40;;
77262;SDS011;66373;52.334;4.806;2023-02-15T04:43:51;9.40;;;7.25;;
77262;SDS011;66373;52.334;4.806;2023-02-15T04:46:18;10.02;;;7.50;;
77262;SDS011;66373;52.334;4.806;2023-02-15T04:48:45;8.75;;;6.72;;
77262;SDS011;66373;52.334;4.806;2023-02-15T04:51:12;7.63;;;6.82;;
77262;SDS011;66373;52.334;4.806;2023-02-15T04:53:40;10.32;;;8.32;;
77262;SDS011;66373;52.334;4.806;2023-02-15T04:56:07;9.80;;;7.45;;
77262;SDS011;66373;52.334;4.806;2023-02-15T04:58:34;8.98;;;7.15;;
77262;SDS011;66373;52.334;4.806;2023-02-15T05:01:02;7.47;;;6.55;;
77262;SDS011;66373;52.334;4.806;2023-02-15T05:03:29;9.05;;;6.70;;
77262;SDS011;66373;52.334;4.806;2023-02-15T05:05:56;7.88;;;7.13;;
77262;SDS011;66373;52.334;4.806;2023-02-15T05:08:23;9.07;;;7.00;;
77262;SDS011;66373;52.334;4.806;2023-02-15T05:10:51;8.25;;;6.55;;
77262;SDS011;66373;52.334;4.806;2023-02-15T05:13:18;8.70;;;7.20;;
77262;SDS011;66373;52.334;4.806;2023-02-15T05:15:47;9.23;;;7.55;;
77262;SDS011;66373;52.334;4.806;2023-02-15T05:18:15;9.05;;;6.55;;
77262;SDS011;66373;52.334;4.806;2023-02-15T05:20:42;9.68;;;7.05;;
77262;SDS011;66373;52.334;4.806;2023-02-15T05:23:09;8.13;;;6.30;;
77262;SDS011;66373;52.334;4.806;2023-02-15T05:25:36;8.13;;;7.13;;
77262;SDS011;66373;52.334;4.806;2023-02-15T05:28:22;9.25;;;7.40;;
77262;SDS011;66373;52.334;4.806;2023-02-15T05:30:57;7.28;;;6.30;;
77262;SDS011;66373;52.334;4.806;2023-02-15T05:33:28;8.75;;;6.50;;
77262;SDS011;66373;52.334;4.806;2023-02-15T05:35:55;7.63;;;6.88;;
77262;SDS011;66373;52.334;4.806;2023-02-15T05:38:22;7.47;;;6.63;;
77262;SDS011;66373;52.334;4.806;2023-02-15T05:40:49;8.48;;;6.75;;
77262;SDS011;66373;52.334;4.806;2023-02-15T05:43:16;7.75;;;6.70;;
77262;SDS011;66373;52.334;4.806;2023-02-15T05:45:45;7.72;;;6.80;;
77262;SDS011;66373;52.334;4.806;2023-02-15T05:48:12;9.00;;;6.70;;
77262;SDS011;66373;52.334;4.806;2023-02-15T05:50:39;9.40;;;6.20;;
77262;SDS011;66373;52.334;4.806;2023-02-15T05:53:06;9.07;;;6.68;;
77262;SDS011;66373;52.334;4.806;2023-02-15T05:55:33;9.38;;;6.90;;
77262;SDS011;66373;52.334;4.806;2023-02-15T05:58:00;8.43;;;6.50;;
77262;SDS011;66373;52.334;4.806;2023-02-15T06:00:26;7.60;;;6.63;;
77262;SDS011;66373;52.334;4.806;2023-02-15T06:02:55;8.18;;;6.38;;
77262;SDS011;66373;52.334;4.806;2023-02-15T06:05:22;12.52;;;6.15;;
77262;SDS011;66373;52.334;4.806;2023-02-15T06:07:49;10.02;;;6.32;;
77262;SDS011;66373;52.334;4.806;2023-02-15T06:10:16;9.60;;;6.30;;
77262;SDS011;66373;52.334;4.806;2023-02-15T06:12:43;12.10;;;6.88;;
77262;SDS011;66373;52.334;4.806;2023-02-15T06:15:10;7.88;;;5.97;;
77262;SDS011;66373;52.334;4.806;2023-02-15T06:17:37;11.18;;;6.82;;
77262;SDS011;66373;52.334;4.806;2023-02-15T06:20:06;9.23;;;6.63;;
77262;SDS011;66373;52.334;4.806;2023-02-15T06:22:34;8.55;;;6.82;;
77262;SDS011;66373;52.334;4.806;2023-02-15T06:25:01;9.32;;;6.07;;
77262;SDS011;66373;52.334;4.806;2023-02-15T06:27:28;11.55;;;6.18;;
77262;SDS011;66373;52.334;4.806;2023-02-15T06:29:55;7.78;;;6.05;;
77262;SDS011;66373;52.334;4.806;2023-02-15T06:32:22;14.88;;;6.97;;
77262;SDS011;66373;52.334;4.806;2023-02-15T06:34:49;7.55;;;6.47;;
77262;SDS011;66373;52.334;4.806;2023-02-15T06:37:18;7.95;;;6.63;;
77262;SDS011;66373;52.334;4.806;2023-02-15T06:39:44;8.15;;;6.47;;
77262;SDS011;66373;52.334;4.806;2023-02-15T06:42:11;9.48;;;6.22;;
77262;SDS011;66373;52.334;4.806;2023-02-15T06:44:38;10.65;;;6.80;;
77262;SDS011;66373;52.334;4.806;2023-02-15T06:47:05;13.05;;;6.68;;
77262;SDS011;66373;52.334;4.806;2023-02-15T06:49:31;9.05;;;6.32;;
77262;SDS011;66373;52.334;4.806;2023-02-15T06:51:58;9.18;;;6.30;;
77262;SDS011;66373;52.334;4.806;2023-02-15T06:54:26;10.73;;;6.13;;
77262;SDS011;66373;52.334;4.806;2023-02-15T06:56:53;8.27;;;6.97;;
77262;SDS011;66373;52.334;4.806;2023-02-15T06:59:20;8.43;;;6.03;;
77262;SDS011;66373;52.334;4.806;2023-02-15T07:01:47;9.32;;;6.28;;
77262;SDS011;66373;52.334;4.806;2023-02-15T07:04:14;9.77;;;6.00;;
77262;SDS011;66373;52.334;4.806;2023-02-15T07:06:41;8.77;;;6.78;;
77262;SDS011;66373;52.334;4.806;2023-02-15T07:09:08;9.45;;;6.95;;
77262;SDS011;66373;52.334;4.806;2023-02-15T07:11:36;12.35;;;6.65;;
77262;SDS011;66373;52.334;4.806;2023-02-15T07:14:21;11.05;;;6.82;;
77262;SDS011;66373;52.334;4.806;2023-02-15T07:16:48;13.52;;;7.07;;
77262;SDS011;66373;52.334;4.806;2023-02-15T07:19:15;11.73;;;6.90;;
77262;SDS011;66373;52.334;4.806;2023-02-15T07:21:42;13.32;;;6.60;;
77262;SDS011;66373;52.334;4.806;2023-02-15T07:24:09;14.85;;;7.72;;
77262;SDS011;66373;52.334;4.806;2023-02-15T07:26:37;16.92;;;7.53;;
77262;SDS011;66373;52.334;4.806;2023-02-15T07:29:04;21.25;;;9.23;;
77262;SDS011;66373;52.334;4.806;2023-02-15T07:31:31;19.70;;;8.40;;
77262;SDS011;66373;52.334;4.806;2023-02-15T07:33:57;12.07;;;7.95;;
77262;SDS011;66373;52.334;4.806;2023-02-15T07:36:24;17.95;;;8.00;;
77262;SDS011;66373;52.334;4.806;2023-02-15T07:38:51;20.35;;;8.27;;
77262;SDS011;66373;52.334;4.806;2023-02-15T07:41:18;18.33;;;8.30;;
77262;SDS011;66373;52.334;4.806;2023-02-15T07:43:46;17.88;;;9.57;;
77262;SDS011;66373;52.334;4.806;2023-02-15T07:46:14;16.83;;;9.05;;
77262;SDS011;66373;52.334;4.806;2023-02-15T07:48:42;14.65;;;9.18;;
77262;SDS011;66373;52.334;4.806;2023-02-15T07:51:10;15.60;;;8.85;;
77262;SDS011;66373;52.334;4.806;2023-02-15T07:53:38;13.98;;;8.38;;
77262;SDS011;66373;52.334;4.806;2023-02-15T07:56:06;17.02;;;9.48;;
77262;SDS011;66373;52.334;4.806;2023-02-15T07:58:35;19.65;;;9.38;;
77262;SDS011;66373;52.334;4.806;2023-02-15T08:01:21;11.82;;;8.13;;
77262;SDS011;66373;52.334;4.806;2023-02-15T08:03:50;16.92;;;8.32;;
77262;SDS011;66373;52.334;4.806;2023-02-15T08:06:17;18.38;;;8.82;;
77262;SDS011;66373;52.334;4.806;2023-02-15T08:08:44;13.25;;;8.55;;
77262;SDS011;66373;52.334;4.806;2023-02-15T08:11:15;18.42;;;9.43;;
77262;SDS011;66373;52.334;4.806;2023-02-15T08:13:58;21.52;;;9.40;;
77262;SDS011;66373;52.334;4.806;2023-02-15T08:16:31;12.43;;;8.70;;
77262;SDS011;66373;52.334;4.806;2023-02-15T08:19:00;12.15;;;8.80;;
77262;SDS011;66373;52.334;4.806;2023-02-15T08:21:29;15.73;;;8.82;;
77262;SDS011;66373;52.334;4.806;2023-02-15T08:23:56;12.70;;;8.85;;
77262;SDS011;66373;52.334;4.806;2023-02-15T08:26:23;18.08;;;9.07;;
77262;SDS011;66373;52.334;4.806;2023-02-15T08:28:52;18.83;;;9.82;;
77262;SDS011;66373;52.334;4.806;2023-02-15T08:31:19;11.50;;;8.55;;
77262;SDS011;66373;52.334;4.806;2023-02-15T08:33:48;12.88;;;9.07;;
77262;SDS011;66373;52.334;4.806;2023-02-15T08:36:17;11.30;;;9.00;;
77262;SDS011;66373;52.334;4.806;2023-02-15T08:38:45;17.27;;;10.45;;
77262;SDS011;66373;52.334;4.806;2023-02-15T08:41:12;16.05;;;9.05;;
77262;SDS011;66373;52.334;4.806;2023-02-15T08:43:41;13.68;;;8.98;;
77262;SDS011;66373;52.334;4.806;2023-02-15T08:46:09;15.10;;;9.90;;
77262;SDS011;66373;52.334;4.806;2023-02-15T08:48:37;13.10;;;8.88;;
77262;SDS011;66373;52.334;4.806;2023-02-15T08:51:07;13.00;;;8.50;;
77262;SDS011;66373;52.334;4.806;2023-02-15T08:53:37;11.52;;;8.35;;
77262;SDS011;66373;52.334;4.806;2023-02-15T08:56:04;13.35;;;9.45;;
77262;SDS011;66373;52.334;4.806;2023-02-15T08:58:32;12.30;;;8.98;;
77262;SDS011;66373;52.334;4.806;2023-02-15T09:00:59;14.27;;;9.10;;
77262;SDS011;66373;52.334;4.806;2023-02-15T09:03:28;13.45;;;9.13;;
77262;SDS011;66373;52.334;4.806;2023-02-15T09:05:58;14.93;;;9.95;;
77262;SDS011;66373;52.334;4.806;2023-02-15T09:08:28;13.38;;;8.27;;
77262;SDS011;66373;52.334;4.806;2023-02-15T09:11:04;15.45;;;8.82;;
77262;SDS011;66373;52.334;4.806;2023-02-15T09:13:34;11.85;;;9.30;;
77262;SDS011;66373;52.334;4.806;2023-02-15T09:16:02;17.10;;;9.95;;
77262;SDS011;66373;52.334;4.806;2023-02-15T09:18:31;14.00;;;8.60;;
77262;SDS011;66373;52.334;4.806;2023-02-15T09:21:04;12.55;;;8.80;;
77262;SDS011;66373;52.334;4.806;2023-02-15T09:23:33;14.05;;;9.18;;
77262;SDS011;66373;52.334;4.806;2023-02-15T09:26:04;13.75;;;9.13;;
77262;SDS011;66373;52.334;4.806;2023-02-15T09:28:32;13.23;;;8.50;;
77262;SDS011;66373;52.334;4.806;2023-02-15T09:31:06;11.95;;;8.82;;
77262;SDS011;66373;52.334;4.806;2023-02-15T09:33:35;13.60;;;8.18;;
77262;SDS011;66373;52.334;4.806;2023-02-15T09:36:02;13.63;;;9.43;;
77262;SDS011;66373;52.334;4.806;2023-02-15T09:38:30;11.57;;;8.35;;
77262;SDS011;66373;52.334;4.806;2023-02-15T09:41:02;14.18;;;9.65;;
77262;SDS011;66373;52.334;4.806;2023-02-15T09:43:41;10.93;;;8.23;;
77262;SDS011;66373;52.334;4.806;2023-02-15T09:46:20;10.52;;;8.52;;
77262;SDS011;66373;52.334;4.806;2023-02-15T09:48:57;12.63;;;8.88;;
77262;SDS011;66373;52.334;4.806;2023-02-15T09:51:41;11.70;;;9.65;;
77262;SDS011;66373;52.334;4.806;2023-02-15T09:54:21;12.48;;;8.68;;
77262;SDS011;66373;52.334;4.806;2023-02-15T09:57:02;13.40;;;8.68;;
77262;SDS011;66373;52.334;4.806;2023-02-15T09:59:35;12.63;;;9.23;;
77262;SDS011;66373;52.334;4.806;2023-02-15T10:02:15;13.25;;;8.98;;
77262;SDS011;66373;52.334;4.806;2023-02-15T10:04:54;12.07;;;9.48;;
77262;SDS011;66373;52.334;4.806;2023-02-15T10:07:40;12.40;;;8.93;;
77262;SDS011;66373;52.334;4.806;2023-02-15T10:10:18;11.90;;;8.48;;
77262;SDS011;66373;52.334;4.806;2023-02-15T10:12:56;12.95;;;9.32;;
77262;SDS011;66373;52.334;4.806;2023-02-15T10:15:34;11.65;;;8.60;;
77262;SDS011;66373;52.334;4.806;2023-02-15T10:18:16;12.07;;;9.10;;
77262;SDS011;66373;52.334;4.806;2023-02-15T10:20:55;11.27;;;8.85;;
77262;SDS011;66373;52.334;4.806;2023-02-15T10:23:35;12.93;;;9.30;;
77262;SDS011;66373;52.334;4.806;2023-02-15T10:26:14;13.38;;;9.93;;
77262;SDS011;66373;52.334;4.806;2023-02-15T10:28:48;11.65;;;9.65;;
77262;SDS011;66373;52.334;4.806;2023-02-15T10:31:20;12.82;;;10.20;;
77262;SDS011;66373;52.334;4.806;2023-02-15T10:33:53;15.63;;;9.75;;
77262;SDS011;66373;52.334;4.806;2023-02-15T10:39:05;13.73;;;10.13;;
77262;SDS011;66373;52.334;4.806;2023-02-15T10:44:13;12.15;;;9.60;;
77262;SDS011;66373;52.334;4.806;2023-02-15T10:47:06;12.98;;;10.38;;
77262;SDS011;66373;52.334;4.806;2023-02-15T10:50:02;14.50;;;10.73;;
77262;SDS011;66373;52.334;4.806;2023-02-15T10:52:42;13.23;;;10.00;;
77262;SDS011;66373;52.334;4.806;2023-02-15T10:55:22;12.05;;;9.77;;
77262;SDS011;66373;52.334;4.806;2023-02-15T10:58:02;12.77;;;10.75;;
77262;SDS011;66373;52.334;4.806;2023-02-15T11:00:41;10.98;;;9.52;;
77262;SDS011;66373;52.334;4.806;2023-02-15T11:03:17;12.88;;;10.10;;
77262;SDS011;66373;52.334;4.806;2023-02-15T11:05:58;12.30;;;10.70;;
77262;SDS011;66373;52.334;4.806;2023-02-15T11:08:31;10.95;;;9.35;;
77262;SDS011;66373;52.334;4.806;2023-02-15T11:11:02;12.43;;;9.20;;
77262;SDS011;66373;52.334;4.806;2023-02-15T11:13:33;13.50;;;10.13;;
77262;SDS011;66373;52.334;4.806;2023-02-15T11:16:07;11.30;;;9.43;;
77262;SDS011;66373;52.334;4.806;2023-02-15T11:18:41;16.00;;;10.02;;
77262;SDS011;66373;52.334;4.806;2023-02-15T11:21:13;14.27;;;9.88;;
77262;SDS011;66373;52.334;4.806;2023-02-15T11:23:47;14.82;;;10.52;;
77262;SDS011;66373;52.334;4.806;2023-02-15T11:26:14;13.15;;;10.55;;
77262;SDS011;66373;52.334;4.806;2023-02-15T11:28:47;13.13;;;9.93;;
77262;SDS011;66373;52.334;4.806;2023-02-15T11:31:20;14.50;;;10.80;;
77262;SDS011;66373;52.334;4.806;2023-02-15T11:33:51;12.88;;;10.18;;
77262;SDS011;66373;52.334;4.806;2023-02-15T11:36:22;13.50;;;10.10;;
77262;SDS011;66373;52.334;4.806;2023-02-15T11:41:24;14.50;;;9.43;;
77262;SDS011;66373;52.334;4.806;2023-02-15T11:43:56;16.73;;;11.57;;
77262;SDS011;66373;52.334;4.806;2023-02-15T11:46:30;16.65;;;10.38;;
77262;SDS011;66373;52.334;4.806;2023-02-15T11:48:57;14.27;;;9.93;;
77262;SDS011;66373;52.334;4.806;2023-02-15T11:51:24;15.13;;;10.82;;
77262;SDS011;66373;52.334;4.806;2023-02-15T11:53:53;12.23;;;9.73;;
77262;SDS011;66373;52.334;4.806;2023-02-15T11:56:22;15.80;;;11.02;;
77262;SDS011;66373;52.334;4.806;2023-02-15T11:58:51;13.48;;;9.65;;
77262;SDS011;66373;52.334;4.806;2023-02-15T12:01:23;13.65;;;10.77;;
77262;SDS011;66373;52.334;4.806;2023-02-15T12:03:58;20.15;;;10.95;;
77262;SDS011;66373;52.334;4.806;2023-02-15T12:06:29;13.73;;;10.07;;
77262;SDS011;66373;52.334;4.806;2023-02-15T12:09:01;12.68;;;10.20;;
77262;SDS011;66373;52.334;4.806;2023-02-15T12:11:34;14.10;;;11.00;;
77262;SDS011;66373;52.334;4.806;2023-02-15T12:14:03;17.92;;;11.70;;
77262;SDS011;66373;52.334;4.806;2023-02-15T12:16:39;13.43;;;10.30;;
77262;SDS011;66373;52.334;4.806;2023-02-15T12:19:17;12.18;;;9.75;;
77262;SDS011;66373;52.334;4.806;2023-02-15T12:21:54;11.88;;;9.93;;
77262;SDS011;66373;52.334;4.806;2023-02-15T12:24:24;11.80;;;10.38;;
77262;SDS011;66373;52.334;4.806;2023-02-15T12:26:58;14.10;;;10.85;;
77262;SDS011;66373;52.334;4.806;2023-02-15T12:29:27;14.85;;;10.05;;
77262;SDS011;66373;52.334;4.806;2023-02-15T12:31:57;19.70;;;10.07;;
77262;SDS011;66373;52.334;4.806;2023-02-15T12:34:26;13.70;;;9.85;;
77262;SDS011;66373;52.334;4.806;2023-02-15T12:36:57;12.98;;;10.02;;
77262;SDS011;66373;52.334;4.806;2023-02-15T12:39:33;14.02;;;9.93;;
77262;SDS011;66373;52.334;4.806;2023-02-15T12:42:02;12.73;;;10.60;;
77262;SDS011;66373;52.334;4.806;2023-02-15T12:44:31;12.73;;;10.32;;
77262;SDS011;66373;52.334;4.806;2023-02-15T12:47:00;15.95;;;10.60;;
77262;SDS011;66373;52.334;4.806;2023-02-15T12:49:30;14.95;;;11.23;;
77262;SDS011;66373;52.334;4.806;2023-02-15T12:51:58;17.10;;;10.65;;
77262;SDS011;66373;52.334;4.806;2023-02-15T12:54:30;15.25;;;11.00;;
77262;SDS011;66373;52.334;4.806;2023-02-15T12:57:12;14.40;;;11.32;;
77262;SDS011;66373;52.334;4.806;2023-02-15T12:59:47;15.40;;;10.40;;
77262;SDS011;66373;52.334;4.806;2023-02-15T13:02:17;14.75;;;10.13;;
77262;SDS011;66373;52.334;4.806;2023-02-15T13:04:52;15.93;;;11.80;;
77262;SDS011;66373;52.334;4.806;2023-02-15T13:07:21;14.20;;;10.63;;
77262;SDS011;66373;52.334;4.806;2023-02-15T13:09:51;14.48;;;10.52;;
77262;SDS011;66373;52.334;4.806;2023-02-15T13:12:20;13.43;;;10.50;;
77262;SDS011;66373;52.334;4.806;2023-02-15T13:14:49;14.50;;;11.43;;
77262;SDS011;66373;52.334;4.806;2023-02-15T13:17:20;14.02;;;11.45;;
77262;SDS011;66373;52.334;4.806;2023-02-15T13:19:56;14.77;;;11.10;;
77262;SDS011;66373;52.334;4.806;2023-02-15T13:22:28;14.15;;;10.75;;
77262;SDS011;66373;52.334;4.806;2023-02-15T13:25:03;14.90;;;10.88;;
77262;SDS011;66373;52.334;4.806;2023-02-15T13:27:37;13.85;;;11.27;;
77262;SDS011;66373;52.334;4.806;2023-02-15T13:30:10;14.07;;;10.85;;
77262;SDS011;66373;52.334;4.806;2023-02-15T13:32:45;14.43;;;10.43;;
77262;SDS011;66373;52.334;4.806;2023-02-15T13:35:17;15.38;;;10.80;;
77262;SDS011;66373;52.334;4.806;2023-02-15T13:37:52;14.80;;;10.88;;
77262;SDS011;66373;52.334;4.806;2023-02-15T13:40:37;14.98;;;11.75;;
77262;SDS011;66373;52.334;4.806;2023-02-15T13:43:15;14.38;;;10.40;;
77262;SDS011;66373;52.334;4.806;2023-02-15T13:45:55;14.55;;;10.50;;
77262;SDS011;66373;52.334;4.806;2023-02-15T13:53:53;13.90;;;10.35;;
77262;SDS011;66373;52.334;4.806;2023-02-15T13:56:35;13.73;;;10.45;;
77262;SDS011;66373;52.334;4.806;2023-02-15T13:59:24;13.00;;;10.55;;
77262;SDS011;66373;52.334;4.806;2023-02-15T14:02:15;13.95;;;11.13;;
77262;SDS011;66373;52.334;4.806;2023-02-15T14:05:22;15.15;;;11.13;;
77262;SDS011;66373;52.334;4.806;2023-02-15T14:08:15;14.75;;;12.13;;
77262;SDS011;66373;52.334;4.806;2023-02-15T14:10:54;13.98;;;11.00;;
77262;SDS011;66373;52.334;4.806;2023-02-15T14:13:31;15.15;;;11.20;;
77262;SDS011;66373;52.334;4.806;2023-02-15T14:16:11;14.90;;;11.88;;
77262;SDS011;66373;52.334;4.806;2023-02-15T14:18:44;14.82;;;11.45;;
77262;SDS011;66373;52.334;4.806;2023-02-15T14:21:16;13.73;;;10.90;;
77262;SDS011;66373;52.334;4.806;2023-02-15T14:23:55;16.35;;;11.32;;
77262;SDS011;66373;52.334;4.806;2023-02-15T14:26:35;15.48;;;11.00;;
77262;SDS011;66373;52.334;4.806;2023-02-15T14:29:15;15.18;;;11.38;;
77262;SDS011;66373;52.334;4.806;2023-02-15T14:31:52;14.38;;;12.05;;
77262;SDS011;66373;52.334;4.806;2023-02-15T14:34:22;14.32;;;12.10;;
77262;SDS011;66373;52.334;4.806;2023-02-15T14:36:54;17.23;;;12.20;;
77262;SDS011;66373;52.334;4.806;2023-02-15T14:39:26;13.90;;;11.30;;
77262;SDS011;66373;52.334;4.806;2023-02-15T14:42:30;13.75;;;11.35;;
77262;SDS011;66373;52.334;4.806;2023-02-15T14:45:06;13.70;;;11.50;;
77262;SDS011;66373;52.334;4.806;2023-02-15T14:47:48;16.02;;;11.52;;
77262;SDS011;66373;52.334;4.806;2023-02-15T14:59:14;12.73;;;11.40;;
77262;SDS011;66373;52.334;4.806;2023-02-15T15:01:51;15.02;;;11.57;;
77262;SDS011;66373;52.334;4.806;2023-02-15T15:04:24;13.77;;;12.05;;
77262;SDS011;66373;52.334;4.806;2023-02-15T15:06:58;13.02;;;11.48;;
77262;SDS011;66373;52.334;4.806;2023-02-15T15:09:37;16.20;;;12.00;;
77262;SDS011;66373;52.334;4.806;2023-02-15T15:12:13;15.40;;;10.73;;
77262;SDS011;66373;52.334;4.806;2023-02-15T15:14:42;15.55;;;12.00;;
77262;SDS011;66373;52.334;4.806;2023-02-15T15:17:11;15.77;;;11.80;;
77262;SDS011;66373;52.334;4.806;2023-02-15T15:19:57;14.23;;;12.32;;
77262;SDS011;66373;52.334;4.806;2023-02-15T15:22:26;16.00;;;11.50;;
77262;SDS011;66373;52.334;4.806;2023-02-15T15:24:56;15.55;;;11.75;;
77262;SDS011;66373;52.334;4.806;2023-02-15T15:27:41;14.35;;;12.23;;
77262;SDS011;66373;52.334;4.806;2023-02-15T15:36:53;13.93;;;11.57;;
77262;SDS011;66373;52.334;4.806;2023-02-15T15:39:56;16.20;;;12.27;;